Time;durP1;ratioP1;P1;durP2;ratioP2;P2;SDS_P1;SDS_P2;PMS_P1;PMS_P2;Temp;Humidity;BMP_temperature;BMP_pressure;BME280_temperature;BME280_humidity;BME280_pressure;Samples;Min_cycle;Max_cycle;Signal;HPM_P1;HPM_P2
2021/11/27 00:00:22;;;;;;;40.98;22.70;;;;;;;4.27;100.00;99515.63;1779458;79;21314;-84
2021/11/27 00:03:28;;;;;;;36.68;19.37;;;;;;;4.27;100.00;99511.55;1780174;79;21369;-79
2021/11/27 00:06:32;;;;;;;34.50;20.55;;;;;;;4.30;100.00;99507.70;1780517;80;21282;-83
2021/11/27 00:09:38;;;;;;;34.33;19.82;;;;;;;4.32;100.00;99501.61;1779920;79;21322;-84
2021/11/27 00:12:44;;;;;;;47.90;21.37;;;;;;;4.36;100.00;99501.15;1780481;80;21318;-83
2021/11/27 00:15:50;;;;;;;38.65;20.80;;;;;;;4.43;100.00;99491.06;1780530;80;21299;-78
2021/11/27 00:18:55;;;;;;;42.08;20.97;;;;;;;4.47;100.00;99495.13;1780488;79;21314;-82
2021/11/27 00:22:01;;;;;;;44.77;20.77;;;;;;;4.51;100.00;99478.41;1780546;80;21344;-79
2021/11/27 00:25:07;;;;;;;46.13;24.57;;;;;;;4.55;100.00;99483.87;1779078;79;21199;-83
2021/11/27 00:28:13;;;;;;;37.38;21.10;;;;;;;4.59;100.00;99465.45;1780362;80;21797;-78
2021/11/27 00:31:23;;;;;;;35.90;20.45;;;;;;;4.62;100.00;99451.59;1780754;80;21322;-81
2021/11/27 00:34:31;;;;;;;39.25;21.00;;;;;;;4.69;100.00;99443.67;1779636;79;21322;-82
2021/11/27 00:37:36;;;;;;;42.48;20.85;;;;;;;4.75;100.00;99446.61;1782827;80;21839;-83
2021/11/27 00:40:43;;;;;;;35.45;21.17;;;;;;;4.81;100.00;99437.83;1784706;79;21773;-83
2021/11/27 00:43:48;;;;;;;32.75;17.65;;;;;;;4.84;100.00;99426.66;1786104;79;21302;-79
2021/11/27 00:46:54;;;;;;;29.75;17.45;;;;;;;4.88;100.00;99419.91;1786048;80;21258;-79
2021/11/27 00:50:00;;;;;;;33.42;19.82;;;;;;;4.95;100.00;99417.92;1785535;79;21338;-83
2021/11/27 00:53:10;;;;;;;30.57;15.93;;;;;;;5.00;100.00;99416.42;1784553;80;21167;-84
2021/11/27 00:56:14;;;;;;;;;;;;;;;5.09;100.00;99407.82;1788986;80;21740;-80
2021/11/27 00:59:19;;;;;;;23.65;14.07;;;;;;;5.16;100.00;99396.65;1786344;79;20250;-76
2021/11/27 01:02:24;;;;;;;25.35;13.50;;;;;;;5.25;100.00;99398.89;1786215;80;21274;-77
2021/11/27 01:05:31;;;;;;;24.85;12.75;;;;;;;5.33;100.00;99382.66;1785642;79;21290;-81
2021/11/27 01:08:37;;;;;;;19.92;11.63;;;;;;;5.42;100.00;99385.73;1786264;79;21342;-76
2021/11/27 01:11:46;;;;;;;21.10;12.13;;;;;;;5.52;100.00;99381.52;1786339;80;21199;-77
2021/11/27 01:14:51;;;;;;;21.57;12.45;;;;;;;5.61;100.00;99376.44;1786422;79;21839;-82
2021/11/27 01:17:57;;;;;;;30.55;12.65;;;;;;;5.68;100.00;99358.97;1786352;80;21297;-80
2021/11/27 01:21:07;;;;;;;22.55;11.57;;;;;;;5.73;100.00;99368.30;1786317;80;21294;-76
2021/11/27 01:24:16;;;;;;;25.88;14.15;;;;;;;5.76;100.00;99346.27;1786012;79;21183;-76
2021/11/27 01:27:24;;;;;;;24.33;12.27;;;;;;;5.81;100.00;99347.12;1786603;80;21175;-81
2021/11/27 01:30:29;;;;;;;29.65;14.60;;;;;;;5.87;100.00;99335.06;1786166;79;21302;-81
2021/11/27 01:33:36;;;;;;;23.52;12.60;;;;;;;5.88;100.00;99331.35;1786185;79;21286;-82
2021/11/27 01:36:40;;;;;;;21.05;11.12;;;;;;;5.89;100.00;99328.13;1786100;80;21222;-81
2021/11/27 01:39:41;;;;;;;20.15;10.05;;;;;;;5.91;100.00;99319.29;1786120;79;21330;-81
2021/11/27 01:42:34;;;;;;;29.48;13.90;;;;;;;5.95;100.00;99317.97;1786305;80;21270;-76
2021/11/27 01:45:39;;;;;;;24.55;14.00;;;;;;;6.00;100.00;99318.81;1786359;79;21951;-81
2021/11/27 01:48:44;;;;;;;18.65;11.50;;;;;;;6.04;100.00;99316.94;1786401;79;21239;-76
2021/11/27 01:51:50;;;;;;;20.15;10.95;;;;;;;6.10;100.00;99316.25;1786292;80;21294;-77
2021/11/27 01:54:55;;;;;;;23.22;12.15;;;;;;;6.18;100.00;99309.97;1786262;79;21815;-76
2021/11/27 01:58:00;;;;;;;19.77;9.50;;;;;;;6.27;100.00;99307.58;1786243;80;21269;-76
2021/11/27 02:01:13;;;;;;;19.42;9.05;;;;;;;6.36;100.00;99316.05;1784679;80;21206;-76
2021/11/27 02:04:18;;;;;;;19.47;9.43;;;;;;;6.47;100.00;99316.17;1786531;79;21298;-82
2021/11/27 02:07:23;;;;;;;19.17;8.25;;;;;;;6.57;100.00;99315.46;1786273;80;21839;-81
2021/11/27 02:10:28;;;;;;;16.67;8.83;;;;;;;6.64;100.00;99311.03;1786263;79;21310;-76
2021/11/27 02:13:33;;;;;;;16.70;8.38;;;;;;;6.71;100.00;99304.89;1786109;79;21819;-82
2021/11/27 02:16:39;;;;;;;13.93;8.55;;;;;;;6.74;100.00;99304.55;1786249;80;21187;-78
2021/11/27 02:19:47;;;;;;;17.32;9.10;;;;;;;6.78;100.00;99307.25;1786347;79;21345;-82
2021/11/27 02:22:52;;;;;;;15.05;8.63;;;;;;;6.83;100.00;99302.13;1786318;80;21298;-82
2021/11/27 02:25:57;;;;;;;20.23;8.83;;;;;;;6.84;100.00;99296.51;1786321;80;21287;-76
2021/11/27 02:29:09;;;;;;;17.02;8.75;;;;;;;6.87;100.00;99300.77;1786414;79;21172;-77
2021/11/27 02:32:15;;;;;;;17.80;7.97;;;;;;;6.89;100.00;99295.98;1786325;80;21274;-81
2021/11/27 02:35:20;;;;;;;16.62;8.23;;;;;;;6.90;100.00;99295.79;1784989;79;21795;-76
2021/11/27 02:38:26;;;;;;;21.37;8.73;;;;;;;6.91;100.00;99293.91;1784995;79;21310;-79
2021/11/27 02:41:31;;;;;;;16.85;8.55;;;;;;;6.93;100.00;99293.77;1723258;83;21211;-79
2021/11/27 02:44:38;;;;;;;15.90;8.20;;;;;;;6.95;100.00;99288.98;1751078;82;21350;-83
2021/11/27 02:47:45;;;;;;;12.90;7.45;;;;;;;6.97;100.00;99293.23;1725276;83;21299;-84
2021/11/27 02:50:59;;;;;;;20.17;8.08;;;;;;;6.98;100.00;99286.76;1751659;82;21337;-83
2021/11/27 02:54:06;;;;;;;15.72;7.72;;;;;;;7.02;100.00;99275.02;1724524;83;21310;-83
2021/11/27 02:57:12;;;;;;;14.28;7.40;;;;;;;7.00;100.00;99269.74;1750446;82;21307;-83
2021/11/27 03:00:22;;;;;;;17.02;7.55;;;;;;;6.99;100.00;99271.29;1724817;82;21318;-76
2021/11/27 03:03:30;;;;;;;17.40;8.33;;;;;;;6.96;100.00;99264.33;1751656;82;21279;-77
2021/11/27 03:06:35;;;;;;;16.67;7.70;;;;;;;6.94;100.00;99258.75;1725179;83;21199;-76
2021/11/27 03:09:41;;;;;;;11.68;7.70;;;;;;;6.94;100.00;99262.83;1750897;82;21201;-83
2021/11/27 03:12:48;;;;;;;13.48;6.35;;;;;;;6.95;100.00;99261.27;1724292;83;21168;-78
2021/11/27 03:15:53;;;;;;;14.70;7.50;;;;;;;6.95;100.00;99254.48;1750340;82;21920;-84
2021/11/27 03:19:00;;;;;;;14.47;6.72;;;;;;;6.97;100.00;99248.89;1724526;83;21886;-79
2021/11/27 03:22:06;;;;;;;11.68;7.10;;;;;;;6.97;100.00;99233.94;1751323;82;21333;-84
2021/11/27 03:25:12;;;;;;;17.42;6.83;;;;;;;6.97;100.00;99223.05;1724811;83;21336;-78
2021/11/27 03:28:18;;;;;;;17.07;7.92;;;;;;;6.97;100.00;99214.90;1751624;82;21846;-85
2021/11/27 03:31:24;;;;;;;17.95;6.90;;;;;;;6.95;100.00;99212.34;1724567;83;21236;-84
2021/11/27 03:34:31;;;;;;;11.53;6.25;;;;;;;6.95;100.00;99200.63;1750945;82;21246;-84
2021/11/27 03:37:37;;;;;;;12.98;7.08;;;;;;;6.95;100.00;99202.83;1724478;83;21740;-84
2021/11/27 03:40:48;;;;;;;16.93;6.97;;;;;;;6.91;100.00;99194.17;1745945;82;21334;-84
2021/11/27 03:43:55;;;;;;;12.60;7.37;;;;;;;6.93;100.00;99186.37;1719231;83;21556;-77
2021/11/27 03:47:01;;;;;;;15.95;8.68;;;;;;;6.93;100.00;99189.09;1745861;82;21286;-83
2021/11/27 03:50:06;;;;;;;18.52;7.55;;;;;;;6.95;100.00;99191.11;1719567;83;21326;-83
2021/11/27 03:53:11;;;;;;;14.43;7.37;;;;;;;6.97;100.00;99186.36;1745261;82;21358;-77
2021/11/27 03:56:22;;;;;;;18.57;8.28;;;;;;;6.95;100.00;99182.95;1718977;83;21204;-77
2021/11/27 03:59:28;;;;;;;18.62;7.35;;;;;;;6.95;100.00;99185.16;1746115;82;21860;-83
2021/11/27 04:02:34;;;;;;;19.95;7.58;;;;;;;6.94;100.00;99184.83;1720584;83;21279;-82
2021/11/27 04:05:41;;;;;;;18.50;7.67;;;;;;;6.93;100.00;99182.30;1744690;82;21377;-83
2021/11/27 04:08:48;;;;;;;18.35;9.15;;;;;;;6.95;100.00;99172.08;1719584;83;21851;-77
2021/11/27 04:11:56;;;;;;;17.92;7.90;;;;;;;6.96;100.00;99178.69;1745882;82;21279;-79
2021/11/27 04:15:08;;;;;;;20.35;8.23;;;;;;;6.98;100.00;99169.01;1719461;83;21325;-83
2021/11/27 04:18:14;;;;;;;18.15;7.75;;;;;;;6.98;100.00;99160.34;1745014;82;21353;-80
2021/11/27 04:21:21;;;;;;;17.25;7.25;;;;;;;6.97;100.00;99146.94;1720623;83;21302;-78
2021/11/27 04:24:26;;;;;;;17.05;7.35;;;;;;;6.95;100.00;99150.33;1746096;82;21816;-76
2021/11/27 04:27:31;;;;;;;17.05;7.20;;;;;;;6.94;100.00;99147.28;1720047;83;21322;-80
2021/11/27 04:30:38;;;;;;;18.95;8.08;;;;;;;6.94;100.00;99152.72;1744724;82;21585;-84
2021/11/27 04:33:44;;;;;;;17.67;7.53;;;;;;;6.94;100.00;99159.00;1720554;83;21393;-78
2021/11/27 04:36:50;;;;;;;24.57;7.58;;;;;;;6.96;100.00;99154.73;1746068;82;21291;-84
2021/11/27 04:39:56;;;;;;;17.70;7.20;;;;;;;6.98;100.00;99152.70;1719466;83;21385;-84
2021/11/27 04:43:03;;;;;;;15.03;7.28;;;;;;;6.98;100.00;99154.05;1733985;83;21294;-78
2021/11/27 04:46:09;;;;;;;20.12;7.37;;;;;;;6.97;100.00;99142.34;1734053;83;21282;-78
2021/11/27 04:49:15;;;;;;;15.78;7.05;;;;;;;6.97;100.00;99150.50;1733662;83;21340;-82
2021/11/27 04:52:21;;;;;;;14.60;6.62;;;;;;;6.96;100.00;99148.78;1733881;83;21334;-84
2021/11/27 04:55:27;;;;;;;13.08;6.78;;;;;;;6.97;100.00;99150.50;1732757;83;21398;-78
2021/11/27 04:58:34;;;;;;;13.55;6.72;;;;;;;6.97;100.00;99146.42;1732599;81;21184;-78
2021/11/27 05:01:39;;;;;;;16.15;6.70;;;;;;;6.99;100.00;99139.43;1734019;83;21728;-77
2021/11/27 05:04:46;;;;;;;16.87;8.05;;;;;;;6.99;100.00;99139.43;1733428;83;21326;-77
2021/11/27 05:07:53;;;;;;;13.22;6.33;;;;;;;7.00;100.00;99146.55;1733543;83;21281;-78
2021/11/27 05:10:59;;;;;;;23.02;6.72;;;;;;;7.00;100.00;99140.59;1732647;83;21222;-77
2021/11/27 05:14:05;;;;;;;15.13;6.62;;;;;;;7.00;100.00;99131.08;1733668;81;21222;-83
2021/11/27 05:17:10;;;;;;;10.15;5.97;;;;;;;7.01;100.00;99134.64;1733953;83;21175;-77
2021/11/27 05:20:17;;;;;;;14.85;6.25;;;;;;;7.01;100.00;99135.52;1707550;83;21326;-77
2021/11/27 05:23:23;;;;;;;11.43;5.62;;;;;;;7.02;100.00;99125.48;1732607;83;21194;-83
2021/11/27 05:26:46;;;;;;;11.78;5.90;;;;;;;7.02;100.00;99130.41;1734188;83;21148;-77
2021/11/27 05:30:04;;;;;;;14.47;6.28;;;;;;;7.04;100.00;99118.81;1734085;81;21321;-84
2021/11/27 05:33:16;;;;;;;11.00;5.45;;;;;;;7.05;100.00;99116.94;1734302;83;21286;-84
2021/11/27 05:36:27;;;;;;;12.65;5.80;;;;;;;7.05;100.00;99111.50;1733766;83;21305;-79
2021/11/27 05:39:32;;;;;;;15.35;6.72;;;;;;;7.06;100.00;99113.22;1732839;83;21266;-77
2021/11/27 05:42:38;;;;;;;11.30;5.45;;;;;;;7.07;100.00;99104.02;1725827;81;21196;-84
2021/11/27 05:45:44;;;;;;;8.00;4.70;;;;;;;7.07;100.00;99111.66;1706962;84;21333;-76
2021/11/27 05:48:52;;;;;;;9.93;4.58;;;;;;;7.08;100.00;99114.70;1719693;83;21211;-77
2021/11/27 05:52:00;;;;;;;12.90;4.80;;;;;;;7.10;100.00;99109.92;1723260;83;21297;-76
2021/11/27 05:55:06;;;;;;;10.00;5.22;;;;;;;7.12;100.00;99109.76;1728198;83;21851;-82
2021/11/27 05:58:12;;;;;;;8.18;4.08;;;;;;;7.13;100.00;99127.76;1723622;83;21337;-82
2021/11/27 06:01:18;;;;;;;8.98;4.42;;;;;;;7.13;100.00;99120.44;1701840;83;21296;-84
2021/11/27 06:04:23;;;;;;;8.98;4.80;;;;;;;7.14;100.00;99103.09;1710960;82;21634;-83
2021/11/27 06:07:30;;;;;;;8.75;4.20;;;;;;;7.16;100.00;99112.45;1719704;83;21932;-83
2021/11/27 06:10:38;;;;;;;10.60;5.28;;;;;;;7.16;100.00;99102.41;1698070;82;21216;-82
2021/11/27 06:13:43;;;;;;;11.20;5.03;;;;;;;7.18;100.00;99098.13;1711701;82;21366;-77
2021/11/27 06:16:48;;;;;;;12.65;5.15;;;;;;;7.16;100.00;99085.25;1676976;85;21305;-76
2021/11/27 06:19:56;;;;;;;12.45;4.62;;;;;;;7.16;100.00;99081.17;1715625;82;21283;-77
2021/11/27 06:23:01;;;;;;;7.30;4.17;;;;;;;7.14;100.00;99088.13;1709832;83;21317;-84
2021/11/27 06:26:07;;;;;;;10.38;5.00;;;;;;;7.14;100.00;99082.69;1683024;84;21657;-83
2021/11/27 06:29:13;;;;;;;8.25;4.03;;;;;;;7.14;100.00;99067.73;1704540;83;21304;-78
2021/11/27 06:32:25;;;;;;;6.08;3.70;;;;;;;7.14;100.00;99070.45;1674437;84;21296;-77
2021/11/27 06:35:29;;;;;;;8.40;4.73;;;;;;;7.15;100.00;99066.73;1698052;82;21978;-76
2021/11/27 06:38:35;;;;;;;10.70;4.60;;;;;;;7.17;100.00;99074.70;1707914;82;21816;-78
2021/11/27 06:41:42;;;;;;;10.30;5.12;;;;;;;7.17;100.00;99069.25;1702239;82;21203;-83
2021/11/27 06:44:55;;;;;;;12.50;4.67;;;;;;;7.17;100.00;99061.94;1708211;81;21210;-76
2021/11/27 06:48:04;;;;;;;11.18;5.50;;;;;;;7.17;100.00;99045.63;1736733;81;21771;-77
2021/11/27 06:51:10;;;;;;;17.92;5.53;;;;;;;7.20;100.00;99056.66;1736884;81;21293;-77
2021/11/27 06:54:16;;;;;;;16.97;5.75;;;;;;;7.20;100.00;99052.58;1745954;81;21795;-77
2021/11/27 06:57:21;;;;;;;11.73;5.75;;;;;;;7.22;100.00;99039.63;1712649;82;21285;-83
2021/11/27 07:00:27;;;;;;;8.45;5.60;;;;;;;7.22;100.00;99042.87;1743351;81;21652;-78
2021/11/27 07:03:54;;;;;;;10.78;5.80;;;;;;;7.23;100.00;99046.75;1672366;84;21218;-76
2021/11/27 07:07:10;;;;;;;13.83;7.17;;;;;;;7.24;100.00;99040.80;1672868;84;21352;-84
2021/11/27 07:10:17;;;;;;;15.38;5.78;;;;;;;7.25;100.00;99053.39;1726893;81;21851;-83
2021/11/27 07:13:28;;;;;;;12.78;6.33;;;;;;;7.24;100.00;99050.31;1730315;81;22109;-77
2021/11/27 07:16:35;;;;;;;17.87;6.20;;;;;;;7.23;100.00;99055.42;1743832;81;21169;-77
2021/11/27 07:19:40;;;;;;;11.60;5.20;;;;;;;7.23;100.00;99054.91;1738957;81;21246;-77
2021/11/27 07:22:46;;;;;;;9.18;4.78;;;;;;;7.21;100.00;99043.38;1717027;82;21320;-76
2021/11/27 07:25:51;;;;;;;10.03;4.78;;;;;;;7.19;100.00;99048.14;1709027;82;21335;-76
2021/11/27 07:29:10;;;;;;;12.03;5.37;;;;;;;7.17;100.00;99044.27;1711025;82;21321;-79
2021/11/27 07:32:16;;;;;;;10.43;4.95;;;;;;;7.14;100.00;99041.06;1714535;82;21313;-84
2021/11/27 07:35:22;;;;;;;8.55;4.12;;;;;;;7.14;100.00;99041.06;1712161;82;22095;-84
2021/11/27 07:38:28;;;;;;;7.87;4.35;;;;;;;7.13;100.00;99036.14;1712080;82;21239;-84
2021/11/27 07:41:34;;;;;;;10.98;4.47;;;;;;;7.12;100.00;99045.34;1711817;82;22357;-77
2021/11/27 07:44:41;;;;;;;12.07;5.35;;;;;;;7.15;100.00;99028.66;1717343;82;21321;-78
2021/11/27 07:48:05;;;;;;;10.28;5.58;;;;;;;7.17;100.00;99037.98;1714529;83;21397;-77
2021/11/27 07:51:30;;;;;;;16.62;6.05;;;;;;;7.20;100.00;99043.55;1720795;82;21203;-83
2021/11/27 07:54:37;;;;;;;15.95;5.65;;;;;;;7.21;100.00;99041.19;1717784;81;21374;-77
2021/11/27 07:57:43;;;;;;;16.55;6.45;;;;;;;7.22;100.00;99036.91;1726087;82;21732;-83
2021/11/27 08:00:50;;;;;;;11.60;5.33;;;;;;;7.24;100.00;99032.11;1718161;83;21354;-82
2021/11/27 08:03:57;;;;;;;14.50;5.97;;;;;;;7.27;100.00;99032.27;1717051;82;21842;-77
2021/11/27 08:07:05;;;;;;;12.65;5.10;;;;;;;7.29;100.00;99018.83;1715625;82;21203;-83
2021/11/27 08:10:17;;;;;;;15.63;5.03;;;;;;;7.30;100.00;99023.23;1711972;81;21333;-78
2021/11/27 08:13:24;;;;;;;13.72;5.62;;;;;;;7.33;100.00;99022.84;1718321;83;21373;-78
2021/11/27 08:16:30;;;;;;;13.58;5.85;;;;;;;7.37;100.00;99026.88;1705740;83;21290;-85
2021/11/27 08:19:36;;;;;;;12.90;5.12;;;;;;;7.43;100.00;99025.28;1713270;83;21188;-77
2021/11/27 08:22:41;;;;;;;12.28;5.35;;;;;;;7.46;100.00;99013.19;1711680;83;21282;-76
2021/11/27 08:25:48;;;;;;;14.58;6.28;;;;;;;7.47;100.00;99013.00;1714805;83;21310;-84
2021/11/27 08:28:54;;;;;;;17.55;8.88;;;;;;;7.51;100.00;99000.70;1717298;83;21305;-84
2021/11/27 08:32:00;;;;;;;16.50;6.83;;;;;;;7.55;100.00;99001.19;1716541;83;21330;-84
2021/11/27 08:35:05;;;;;;;19.75;7.95;;;;;;;7.57;100.00;98994.50;1718867;83;21203;-81
2021/11/27 08:38:11;;;;;;;18.05;6.80;;;;;;;7.60;100.00;98980.52;1718953;83;21148;-83
2021/11/27 08:41:17;;;;;;;20.08;7.47;;;;;;;7.67;100.00;98975.19;1712739;83;21334;-83
2021/11/27 08:44:23;;;;;;;19.45;7.72;;;;;;;7.73;100.00;98978.50;1718867;83;21667;-82
2021/11/27 08:47:29;;;;;;;27.00;9.65;;;;;;;7.78;100.00;98967.88;1715566;83;21306;-83
2021/11/27 08:50:35;;;;;;;26.90;9.23;;;;;;;7.85;100.00;98958.42;1715920;82;21227;-82
2021/11/27 08:53:41;;;;;;;18.62;7.97;;;;;;;7.91;100.00;98944.91;1713409;82;21377;-82
2021/11/27 08:56:46;;;;;;;19.50;7.33;;;;;;;8.01;100.00;98939.66;1716611;83;21271;-76
2021/11/27 08:59:52;;;;;;;22.77;7.87;;;;;;;8.14;100.00;98953.42;1746438;81;21306;-81
2021/11/27 09:02:59;;;;;;;22.07;8.13;;;;;;;8.24;100.00;98940.84;1736505;81;21243;-77
2021/11/27 09:06:04;;;;;;;25.55;7.17;;;;;;;8.31;100.00;98959.44;1745380;81;21341;-83
2021/11/27 09:09:10;;;;;;;19.80;7.12;;;;;;;8.36;100.00;98952.89;1719148;83;21311;-77
2021/11/27 09:12:16;;;;;;;21.48;8.93;;;;;;;8.39;100.00;98944.37;1707588;83;21309;-83
2021/11/27 09:15:22;;;;;;;18.70;7.65;;;;;;;8.39;100.00;98939.76;1710267;83;21948;-82
2021/11/27 09:18:29;;;;;;;27.65;7.87;;;;;;;8.39;100.00;98949.30;1727241;81;21286;-82
2021/11/27 09:21:36;;;;;;;27.45;7.35;;;;;;;8.43;100.00;98927.44;1699812;83;21385;-83
2021/11/27 09:24:41;;;;;;;21.57;8.13;;;;;;;8.47;100.00;98930.61;1693008;83;21309;-77
2021/11/27 09:27:48;;;;;;;26.37;9.33;;;;;;;8.52;100.00;98926.78;1700466;83;21183;-82
2021/11/27 09:30:54;;;;;;;28.83;11.22;;;;;;;8.58;100.00;98924.62;1706106;83;21203;-76
2021/11/27 09:34:00;;;;;;;21.00;7.92;;;;;;;8.66;100.00;98918.19;1711260;82;21251;-82
2021/11/27 09:37:06;;;;;;;30.48;8.60;;;;;;;8.77;100.00;98914.91;1717762;83;21710;-83
2021/11/27 09:40:13;;;;;;;25.17;8.48;;;;;;;8.85;100.00;98913.92;1712334;83;22094;-82
2021/11/27 09:43:19;;;;;;;23.98;9.00;;;;;;;8.95;100.00;98919.86;1712073;83;21338;-82
2021/11/27 09:46:25;;;;;;;25.25;8.68;;;;;;;8.99;100.00;98915.70;1703919;83;21890;-82
2021/11/27 09:49:30;;;;;;;20.85;7.40;;;;;;;9.03;100.00;98915.59;1719257;83;21484;-78
2021/11/27 09:52:35;;;;;;;19.75;7.90;;;;;;;9.06;100.00;98910.27;1716762;83;21360;-82
2021/11/27 09:55:41;;;;;;;23.10;7.30;;;;;;;9.13;100.00;98923.45;1717197;83;21864;-77
2021/11/27 09:58:47;;;;;;;23.55;8.35;;;;;;;9.18;100.00;98922.32;1697945;83;21282;-78
2021/11/27 10:01:52;;;;;;;27.32;8.85;;;;;;;9.24;100.00;98919.30;1708592;83;21221;-83
2021/11/27 10:05:06;;;;;;;16.97;7.97;;;;;;;9.28;100.00;98917.33;1723893;82;21274;-83
2021/11/27 10:08:13;;;;;;;22.13;9.08;;;;;;;9.38;100.00;98918.33;1764349;81;21298;-78
2021/11/27 10:11:18;;;;;;;35.50;9.13;;;;;;;9.43;100.00;98910.37;1727313;81;21275;-78
2021/11/27 10:14:25;;;;;;;24.47;8.33;;;;;;;9.49;100.00;98919.09;1757492;81;21207;-78
2021/11/27 10:17:34;;;;;;;17.70;7.62;;;;;;;9.55;100.00;98923.77;1743188;81;21152;-83
2021/11/27 10:20:39;;;;;;;24.77;9.03;;;;;;;9.64;100.00;98920.31;1754748;81;21813;-78
2021/11/27 10:23:45;;;;;;;23.67;7.95;;;;;;;9.74;100.00;98913.97;1729908;83;21807;-82
2021/11/27 10:26:50;;;;;;;25.02;8.23;;;;;;;9.83;100.00;98914.61;1712110;84;21213;-82
2021/11/27 10:30:12;;;;;;;22.02;9.13;;;;;;;9.91;100.00;98912.53;1699174;83;21365;-80
2021/11/27 10:33:18;;;;;;;29.07;10.65;;;;;;;9.98;100.00;98920.23;1732366;83;21345;-83
2021/11/27 10:36:24;;;;;;;24.90;8.80;;;;;;;10.04;100.00;98914.99;1712459;84;21326;-78
2021/11/27 10:39:30;;;;;;;23.75;8.75;;;;;;;10.05;100.00;98914.77;1733067;83;21320;-78
2021/11/27 10:42:36;;;;;;;24.85;8.70;;;;;;;10.10;100.00;98915.52;1700162;84;21330;-78
2021/11/27 10:45:44;;;;;;;26.27;9.20;;;;;;;10.13;100.00;98921.42;1732977;83;21325;-83
2021/11/27 10:48:51;;;;;;;21.48;8.20;;;;;;;10.17;100.00;98924.06;1699980;84;21262;-78
2021/11/27 10:51:59;;;;;;;29.02;8.65;;;;;;;10.22;100.00;98915.24;1732772;83;21290;-78
2021/11/27 10:55:05;;;;;;;26.80;8.70;;;;;;;10.22;100.00;98913.88;1699185;84;21325;-78
2021/11/27 10:58:11;;;;;;;21.15;8.48;;;;;;;10.18;100.00;98911.23;1734493;83;21756;-83
2021/11/27 11:01:17;;;;;;;27.30;9.00;;;;;;;10.17;100.00;98914.50;1700341;84;21310;-83
2021/11/27 11:04:26;;;;;;;19.15;7.30;;;;;;;10.16;100.00;98912.82;1733673;81;21329;-78
2021/11/27 11:07:33;;;;;;;24.92;8.25;;;;;;;10.16;100.00;98920.15;1700679;84;21302;-83
2021/11/27 11:10:44;;;;;;;20.68;7.60;;;;;;;10.17;100.00;98911.77;1732964;83;21323;-83
2021/11/27 11:13:52;;;;;;;;;;;;;;;10.24;100.00;98911.27;1703320;84;21363;-78
2021/11/27 11:17:05;;;;;;;21.73;7.87;;;;;;;10.30;100.00;98910.95;1713307;84;20199;-83
2021/11/27 11:20:27;;;;;;;20.55;7.05;;;;;;;10.34;100.00;98914.12;1700674;84;21776;-82
2021/11/27 11:23:39;;;;;;;18.12;7.30;;;;;;;10.39;100.00;98914.33;1713267;84;21307;-78
2021/11/27 11:26:51;;;;;;;19.50;6.97;;;;;;;10.49;100.00;98906.55;1733069;83;21207;-78
2021/11/27 11:30:01;;;;;;;22.58;8.43;;;;;;;10.60;100.00;98901.84;1662071;84;21337;-82
2021/11/27 11:33:05;;;;;;;18.52;7.55;;;;;;;10.67;100.00;98914.97;1734679;83;21208;-80
2021/11/27 11:36:11;;;;;;;19.90;8.48;;;;;;;10.73;100.00;98918.78;1700527;84;21350;-78
2021/11/27 11:39:17;;;;;;;21.85;8.00;;;;;;;10.77;100.00;98919.17;1733915;83;21848;-78
2021/11/27 11:42:25;;;;;;;23.45;7.90;;;;;;;10.78;100.00;98917.61;1700665;84;21184;-82
2021/11/27 11:45:29;;;;;;;24.92;9.35;;;;;;;10.79;100.00;98922.02;1733263;83;21321;-79
2021/11/27 11:48:36;;;;;;;20.35;8.50;;;;;;;10.78;100.00;98930.45;1700632;84;21173;-78
2021/11/27 11:51:51;;;;;;;26.68;9.33;;;;;;;10.78;100.00;98925.82;1734383;83;21211;-78
2021/11/27 11:54:57;;;;;;;18.77;8.85;;;;;;;10.78;100.00;98925.82;1699201;84;21322;-78
2021/11/27 11:58:24;;;;;;;22.73;9.33;;;;;;;10.79;100.00;98934.33;1734435;83;21172;-83
2021/11/27 12:01:33;;;;;;;22.07;9.33;;;;;;;10.84;100.00;98930.97;1726813;83;21203;-79
2021/11/27 12:04:39;;;;;;;29.80;10.68;;;;;;;10.85;100.00;98930.74;1757703;81;21239;-79
2021/11/27 12:07:57;;;;;;;28.80;12.13;;;;;;;10.87;100.00;98928.66;1726585;83;21310;-80
2021/11/27 12:11:05;;;;;;;22.98;11.38;;;;;;;10.94;100.00;98928.11;1758289;81;21341;-80
2021/11/27 12:14:10;;;;;;;24.60;10.75;;;;;;;11.05;100.00;98931.24;1757790;81;21796;-79
2021/11/27 12:17:22;;;;;;;15.50;9.20;;;;;;;11.16;100.00;98934.72;1758204;81;21593;-79
2021/11/27 12:20:28;;;;;;;22.67;9.98;;;;;;;11.22;100.00;98935.22;1758609;81;21331;-79
2021/11/27 12:23:45;;;;;;;16.80;7.75;;;;;;;11.24;100.00;98929.86;1757939;81;21419;-79
2021/11/27 12:26:50;;;;;;;20.32;8.70;;;;;;;11.26;100.00;98932.38;1756896;81;21293;-78
2021/11/27 12:30:13;;;;;;;21.52;9.65;;;;;;;11.28;100.00;98937.09;1757520;81;21293;-78
2021/11/27 12:33:58;;;;;;;21.90;9.93;;;;;;;11.32;100.00;98934.24;1756801;81;21297;-78
2021/11/27 12:37:03;;;;;;;26.27;11.75;;;;;;;11.37;100.00;98936.34;1758167;81;21816;-78
2021/11/27 12:40:08;;;;;;;21.70;10.75;;;;;;;11.36;100.00;98942.34;1739077;82;21315;-78
2021/11/27 12:43:28;;;;;;;19.30;10.18;;;;;;;11.35;100.00;98934.36;1758532;81;21196;-79
2021/11/27 12:46:39;;;;;;;21.10;9.95;;;;;;;11.37;100.00;98939.08;1728207;83;21809;-78
2021/11/27 12:49:54;;;;;;;21.75;10.80;;;;;;;11.37;100.00;98941.81;1726906;83;21840;-78
2021/11/27 12:52:59;;;;;;;24.40;11.63;;;;;;;11.35;100.00;98937.93;1708453;84;21244;-78
2021/11/27 12:56:08;;;;;;;33.13;12.58;;;;;;;11.34;100.00;98949.08;1728363;83;21354;-78
2021/11/27 12:59:22;;;;;;;29.27;12.33;;;;;;;11.30;100.00;98947.31;1693712;85;21861;-78
2021/11/27 13:02:27;;;;;;;29.32;12.85;;;;;;;11.26;100.00;98956.48;1666050;84;21309;-78
2021/11/27 13:05:38;;;;;;;24.67;13.13;;;;;;;11.24;100.00;98956.36;1699222;84;21321;-79
2021/11/27 13:08:44;;;;;;;25.43;11.85;;;;;;;11.19;100.00;98956.16;1700011;84;21377;-78
2021/11/27 13:11:56;;;;;;;29.72;11.88;;;;;;;11.13;100.00;98961.97;1697965;84;21369;-79
2021/11/27 13:15:00;;;;;;;19.70;10.58;;;;;;;11.07;100.00;98967.46;1697989;84;21921;-79
2021/11/27 13:18:28;;;;;;;22.48;11.28;;;;;;;11.04;100.00;98976.08;1698172;84;21211;-79
2021/11/27 13:21:35;;;;;;;33.58;14.53;;;;;;;11.04;100.00;98971.45;1697983;84;21366;-79
2021/11/27 13:24:41;;;;;;;27.37;12.20;;;;;;;11.00;100.00;98969.66;1698825;84;21349;-79
2021/11/27 13:27:47;;;;;;;26.80;12.63;;;;;;;10.94;100.00;98965.04;1699440;84;21648;-79
2021/11/27 13:30:52;;;;;;;23.67;10.60;;;;;;;10.84;100.00;98966.52;1699049;84;21250;-79
2021/11/27 13:34:17;;;;;;;19.82;10.78;;;;;;;10.73;100.00;98957.06;1699232;84;21259;-80
2021/11/27 13:37:23;;;;;;;24.23;11.85;;;;;;;10.61;100.00;98970.50;1699966;83;21877;-79
2021/11/27 13:40:35;;;;;;;22.98;13.15;;;;;;;10.49;100.00;98967.56;1699466;84;21608;-80
2021/11/27 13:43:41;;;;;;;24.77;11.93;;;;;;;10.42;100.00;98964.49;1699390;84;21199;-80
2021/11/27 13:47:02;;;;;;;30.72;13.45;;;;;;;10.33;100.00;98962.48;1699199;84;21376;-80
2021/11/27 13:50:11;;;;;;;31.15;15.90;;;;;;;10.24;100.00;98964.55;1699490;84;21309;-80
2021/11/27 13:53:16;;;;;;;;;;;;;;;10.17;100.00;98966.94;1701720;84;21246;-80
2021/11/27 13:56:22;;;;;;;37.48;16.70;;;;;;;10.12;100.00;98968.92;1697956;84;20197;-79
2021/11/27 13:59:35;;;;;;;30.57;14.47;;;;;;;10.11;100.00;98967.74;1698082;84;21325;-79
2021/11/27 14:02:45;;;;;;;37.17;16.12;;;;;;;10.13;100.00;98965.66;1724057;82;21353;-79
2021/11/27 14:05:56;;;;;;;44.33;18.37;;;;;;;10.15;100.00;98969.86;1727312;83;21357;-79
2021/11/27 14:09:06;;;;;;;42.75;17.23;;;;;;;10.17;100.00;98969.67;1729315;83;21275;-79
2021/11/27 14:12:36;;;;;;;34.50;14.68;;;;;;;10.18;100.00;98972.72;1728999;83;21737;-79
2021/11/27 14:15:51;;;;;;;33.92;15.15;;;;;;;10.19;100.00;98973.03;1727542;82;21345;-79
2021/11/27 14:18:57;;;;;;;26.00;13.62;;;;;;;10.18;100.00;98983.12;1728657;83;21322;-79
2021/11/27 14:22:15;;;;;;;28.42;13.88;;;;;;;10.20;100.00;98993.83;1728127;83;21314;-79
2021/11/27 14:25:21;;;;;;;28.95;13.50;;;;;;;10.20;100.00;98988.37;1727858;83;21354;-79
2021/11/27 14:28:26;;;;;;;27.62;13.18;;;;;;;10.19;100.00;98993.52;1728170;83;21361;-79